sensor_id;sensor_type;location;lat;lon;timestamp;P1;durP1;ratioP1;P2;durP2;ratioP2
85077;SDS011;75413;50.144;8.456;2024-03-08T00:02:32;22.08;;;12.20;;
85077;SDS011;75413;50.144;8.456;2024-03-08T00:05:16;18.88;;;12.65;;
85077;SDS011;75413;50.144;8.456;2024-03-08T00:08:01;19.58;;;12.07;;
85077;SDS011;75413;50.144;8.456;2024-03-08T00:10:45;17.70;;;11.93;;
85077;SDS011;75413;50.144;8.456;2024-03-08T00:13:32;21.23;;;13.18;;
85077;SDS011;75413;50.144;8.456;2024-03-08T00:16:16;21.45;;;11.98;;
85077;SDS011;75413;50.144;8.456;2024-03-08T00:19:03;17.67;;;11.73;;
85077;SDS011;75413;50.144;8.456;2024-03-08T00:21:46;17.77;;;11.82;;
85077;SDS011;75413;50.144;8.456;2024-03-08T00:24:31;21.15;;;12.82;;
85077;SDS011;75413;50.144;8.456;2024-03-08T00:27:14;18.95;;;13.27;;
85077;SDS011;75413;50.144;8.456;2024-03-08T00:29:59;21.17;;;12.75;;
85077;SDS011;75413;50.144;8.456;2024-03-08T00:32:43;19.40;;;13.60;;
85077;SDS011;75413;50.144;8.456;2024-03-08T00:35:31;20.23;;;12.48;;
85077;SDS011;75413;50.144;8.456;2024-03-08T00:38:15;21.17;;;12.30;;
85077;SDS011;75413;50.144;8.456;2024-03-08T00:40:59;19.00;;;11.88;;
85077;SDS011;75413;50.144;8.456;2024-03-08T00:43:43;18.73;;;11.82;;
85077;SDS011;75413;50.144;8.456;2024-03-08T00:46:26;20.55;;;11.73;;
85077;SDS011;75413;50.144;8.456;2024-03-08T00:49:12;20.83;;;11.98;;
85077;SDS011;75413;50.144;8.456;2024-03-08T00:51:56;19.10;;;12.35;;
85077;SDS011;75413;50.144;8.456;2024-03-08T00:54:40;21.85;;;11.60;;
85077;SDS011;75413;50.144;8.456;2024-03-08T00:57:24;16.15;;;10.70;;
85077;SDS011;75413;50.144;8.456;2024-03-08T01:00:08;20.50;;;12.15;;
85077;SDS011;75413;50.144;8.456;2024-03-08T01:02:56;21.35;;;13.25;;
85077;SDS011;75413;50.144;8.456;2024-03-08T01:05:40;23.30;;;12.30;;
85077;SDS011;75413;50.144;8.456;2024-03-08T01:08:24;21.70;;;13.70;;
85077;SDS011;75413;50.144;8.456;2024-03-08T01:11:08;18.98;;;12.52;;
85077;SDS011;75413;50.144;8.456;2024-03-08T01:13:55;19.60;;;12.30;;
85077;SDS011;75413;50.144;8.456;2024-03-08T01:16:39;18.42;;;12.38;;
85077;SDS011;75413;50.144;8.456;2024-03-08T01:19:23;19.92;;;13.13;;
85077;SDS011;75413;50.144;8.456;2024-03-08T01:22:07;20.10;;;12.13;;
85077;SDS011;75413;50.144;8.456;2024-03-08T01:24:51;23.30;;;13.00;;
85077;SDS011;75413;50.144;8.456;2024-03-08T01:27:35;22.25;;;12.93;;
85077;SDS011;75413;50.144;8.456;2024-03-08T01:30:20;18.30;;;11.00;;
85077;SDS011;75413;50.144;8.456;2024-03-08T01:33:04;23.05;;;12.13;;
85077;SDS011;75413;50.144;8.456;2024-03-08T01:35:48;20.88;;;11.85;;
85077;SDS011;75413;50.144;8.456;2024-03-08T01:38:32;23.80;;;13.02;;
85077;SDS011;75413;50.144;8.456;2024-03-08T01:41:16;21.20;;;12.85;;
85077;SDS011;75413;50.144;8.456;2024-03-08T01:44:01;18.50;;;12.82;;
85077;SDS011;75413;50.144;8.456;2024-03-08T01:46:48;21.95;;;12.35;;
85077;SDS011;75413;50.144;8.456;2024-03-08T01:49:35;19.70;;;13.05;;
85077;SDS011;75413;50.144;8.456;2024-03-08T01:52:18;24.48;;;13.95;;
85077;SDS011;75413;50.144;8.456;2024-03-08T01:55:04;22.13;;;11.85;;
85077;SDS011;75413;50.144;8.456;2024-03-08T01:57:50;23.10;;;13.13;;
85077;SDS011;75413;50.144;8.456;2024-03-08T02:00:35;18.00;;;11.68;;
85077;SDS011;75413;50.144;8.456;2024-03-08T02:03:21;19.05;;;12.13;;
85077;SDS011;75413;50.144;8.456;2024-03-08T02:06:12;21.92;;;13.25;;
85077;SDS011;75413;50.144;8.456;2024-03-08T02:08:58;19.58;;;13.32;;
85077;SDS011;75413;50.144;8.456;2024-03-08T02:11:43;22.73;;;13.77;;
85077;SDS011;75413;50.144;8.456;2024-03-08T02:14:27;19.73;;;12.13;;
85077;SDS011;75413;50.144;8.456;2024-03-08T02:17:15;20.45;;;12.93;;
85077;SDS011;75413;50.144;8.456;2024-03-08T02:19:59;18.40;;;12.15;;
85077;SDS011;75413;50.144;8.456;2024-03-08T02:22:48;22.33;;;12.35;;
85077;SDS011;75413;50.144;8.456;2024-03-08T02:25:33;20.27;;;12.32;;
85077;SDS011;75413;50.144;8.456;2024-03-08T02:28:17;21.20;;;12.13;;
85077;SDS011;75413;50.144;8.456;2024-03-08T02:31:04;22.75;;;13.73;;
85077;SDS011;75413;50.144;8.456;2024-03-08T02:33:51;18.92;;;11.77;;
85077;SDS011;75413;50.144;8.456;2024-03-08T02:36:35;20.90;;;12.23;;
85077;SDS011;75413;50.144;8.456;2024-03-08T02:39:20;20.42;;;12.75;;
85077;SDS011;75413;50.144;8.456;2024-03-08T02:42:04;24.75;;;13.40;;
85077;SDS011;75413;50.144;8.456;2024-03-08T02:44:48;21.60;;;12.65;;
85077;SDS011;75413;50.144;8.456;2024-03-08T02:47:32;19.80;;;12.07;;
85077;SDS011;75413;50.144;8.456;2024-03-08T02:50:16;23.17;;;12.93;;
85077;SDS011;75413;50.144;8.456;2024-03-08T02:53:00;20.30;;;12.70;;
85077;SDS011;75413;50.144;8.456;2024-03-08T02:55:44;23.33;;;13.45;;
85077;SDS011;75413;50.144;8.456;2024-03-08T02:58:29;23.90;;;13.18;;
85077;SDS011;75413;50.144;8.456;2024-03-08T03:01:13;22.98;;;13.75;;
85077;SDS011;75413;50.144;8.456;2024-03-08T03:03:57;18.27;;;12.07;;
85077;SDS011;75413;50.144;8.456;2024-03-08T03:06:41;21.30;;;12.82;;
85077;SDS011;75413;50.144;8.456;2024-03-08T03:09:25;21.77;;;12.57;;
85077;SDS011;75413;50.144;8.456;2024-03-08T03:12:13;23.02;;;13.43;;
85077;SDS011;75413;50.144;8.456;2024-03-08T03:14:57;21.42;;;12.50;;
85077;SDS011;75413;50.144;8.456;2024-03-08T03:17:45;20.02;;;13.60;;
85077;SDS011;75413;50.144;8.456;2024-03-08T03:20:37;21.58;;;13.15;;
85077;SDS011;75413;50.144;8.456;2024-03-08T03:23:26;24.00;;;13.75;;
85077;SDS011;75413;50.144;8.456;2024-03-08T03:26:10;18.77;;;12.77;;
85077;SDS011;75413;50.144;8.456;2024-03-08T03:28:57;21.90;;;14.13;;
85077;SDS011;75413;50.144;8.456;2024-03-08T03:31:42;22.05;;;13.55;;
85077;SDS011;75413;50.144;8.456;2024-03-08T03:34:30;20.38;;;13.23;;
85077;SDS011;75413;50.144;8.456;2024-03-08T03:37:17;24.30;;;13.07;;
85077;SDS011;75413;50.144;8.456;2024-03-08T03:40:01;27.13;;;13.10;;
85077;SDS011;75413;50.144;8.456;2024-03-08T03:42:55;21.88;;;13.40;;
85077;SDS011;75413;50.144;8.456;2024-03-08T03:45:39;23.58;;;13.75;;
85077;SDS011;75413;50.144;8.456;2024-03-08T03:48:25;20.98;;;13.50;;
85077;SDS011;75413;50.144;8.456;2024-03-08T03:51:09;23.75;;;13.32;;
85077;SDS011;75413;50.144;8.456;2024-03-08T03:53:53;23.35;;;13.38;;
85077;SDS011;75413;50.144;8.456;2024-03-08T03:56:37;21.98;;;13.70;;
85077;SDS011;75413;50.144;8.456;2024-03-08T03:59:22;23.58;;;13.98;;
85077;SDS011;75413;50.144;8.456;2024-03-08T04:02:06;23.55;;;13.82;;
85077;SDS011;75413;50.144;8.456;2024-03-08T04:04:50;23.27;;;12.60;;
85077;SDS011;75413;50.144;8.456;2024-03-08T04:07:34;22.98;;;13.68;;
85077;SDS011;75413;50.144;8.456;2024-03-08T04:10:23;25.10;;;14.70;;
85077;SDS011;75413;50.144;8.456;2024-03-08T04:13:07;23.55;;;14.05;;
85077;SDS011;75413;50.144;8.456;2024-03-08T04:15:53;23.48;;;13.35;;
85077;SDS011;75413;50.144;8.456;2024-03-08T04:18:40;26.40;;;14.38;;
85077;SDS011;75413;50.144;8.456;2024-03-08T04:21:24;26.10;;;14.63;;
85077;SDS011;75413;50.144;8.456;2024-03-08T04:24:07;24.17;;;14.57;;
85077;SDS011;75413;50.144;8.456;2024-03-08T04:26:52;24.38;;;14.57;;
85077;SDS011;75413;50.144;8.456;2024-03-08T04:29:36;23.67;;;13.75;;
85077;SDS011;75413;50.144;8.456;2024-03-08T04:32:20;27.05;;;15.00;;
85077;SDS011;75413;50.144;8.456;2024-03-08T04:35:05;26.98;;;14.43;;
85077;SDS011;75413;50.144;8.456;2024-03-08T04:37:48;22.65;;;14.93;;
85077;SDS011;75413;50.144;8.456;2024-03-08T04:40:32;25.77;;;14.52;;
85077;SDS011;75413;50.144;8.456;2024-03-08T04:43:18;25.42;;;14.45;;
85077;SDS011;75413;50.144;8.456;2024-03-08T04:46:05;22.00;;;14.23;;
85077;SDS011;75413;50.144;8.456;2024-03-08T04:48:49;25.75;;;14.15;;
85077;SDS011;75413;50.144;8.456;2024-03-08T04:51:33;26.92;;;14.80;;
85077;SDS011;75413;50.144;8.456;2024-03-08T04:54:17;23.55;;;13.75;;
85077;SDS011;75413;50.144;8.456;2024-03-08T04:57:01;23.73;;;14.23;;
85077;SDS011;75413;50.144;8.456;2024-03-08T04:59:45;24.75;;;13.85;;
85077;SDS011;75413;50.144;8.456;2024-03-08T05:02:29;25.77;;;14.13;;
85077;SDS011;75413;50.144;8.456;2024-03-08T05:05:13;23.75;;;14.43;;
85077;SDS011;75413;50.144;8.456;2024-03-08T05:07:57;26.98;;;14.63;;
85077;SDS011;75413;50.144;8.456;2024-03-08T05:10:41;24.17;;;14.23;;
85077;SDS011;75413;50.144;8.456;2024-03-08T05:13:25;24.40;;;13.60;;
85077;SDS011;75413;50.144;8.456;2024-03-08T05:16:10;23.80;;;13.57;;
85077;SDS011;75413;50.144;8.456;2024-03-08T05:18:55;24.13;;;14.77;;
85077;SDS011;75413;50.144;8.456;2024-03-08T05:21:44;24.15;;;13.90;;
85077;SDS011;75413;50.144;8.456;2024-03-08T05:24:28;25.17;;;14.23;;
85077;SDS011;75413;50.144;8.456;2024-03-08T05:27:13;21.50;;;13.60;;
85077;SDS011;75413;50.144;8.456;2024-03-08T05:29:57;24.13;;;14.98;;
85077;SDS011;75413;50.144;8.456;2024-03-08T05:32:41;25.98;;;15.10;;
85077;SDS011;75413;50.144;8.456;2024-03-08T05:35:29;24.27;;;13.25;;
85077;SDS011;75413;50.144;8.456;2024-03-08T05:38:12;24.50;;;14.00;;
85077;SDS011;75413;50.144;8.456;2024-03-08T05:40:56;23.98;;;13.93;;
85077;SDS011;75413;50.144;8.456;2024-03-08T05:43:40;22.58;;;13.38;;
85077;SDS011;75413;50.144;8.456;2024-03-08T05:46:25;26.92;;;14.93;;
85077;SDS011;75413;50.144;8.456;2024-03-08T05:49:09;28.33;;;15.63;;
85077;SDS011;75413;50.144;8.456;2024-03-08T05:51:57;26.40;;;15.27;;
85077;SDS011;75413;50.144;8.456;2024-03-08T05:54:41;24.25;;;14.82;;
85077;SDS011;75413;50.144;8.456;2024-03-08T05:57:25;27.80;;;14.57;;
85077;SDS011;75413;50.144;8.456;2024-03-08T06:00:10;27.73;;;16.33;;
85077;SDS011;75413;50.144;8.456;2024-03-08T06:02:57;29.83;;;15.13;;
85077;SDS011;75413;50.144;8.456;2024-03-08T06:05:42;27.67;;;16.42;;
85077;SDS011;75413;50.144;8.456;2024-03-08T06:08:26;24.13;;;15.05;;
85077;SDS011;75413;50.144;8.456;2024-03-08T06:11:13;26.73;;;14.75;;
85077;SDS011;75413;50.144;8.456;2024-03-08T06:13:59;26.35;;;15.27;;
85077;SDS011;75413;50.144;8.456;2024-03-08T06:16:46;25.45;;;16.13;;
85077;SDS011;75413;50.144;8.456;2024-03-08T06:19:30;27.75;;;15.05;;
85077;SDS011;75413;50.144;8.456;2024-03-08T06:22:14;26.35;;;15.52;;
85077;SDS011;75413;50.144;8.456;2024-03-08T06:24:58;26.58;;;14.95;;
85077;SDS011;75413;50.144;8.456;2024-03-08T06:27:42;26.73;;;15.38;;
85077;SDS011;75413;50.144;8.456;2024-03-08T06:30:27;28.08;;;16.00;;
85077;SDS011;75413;50.144;8.456;2024-03-08T06:33:10;21.88;;;14.90;;
85077;SDS011;75413;50.144;8.456;2024-03-08T06:35:54;25.77;;;14.23;;
85077;SDS011;75413;50.144;8.456;2024-03-08T06:38:41;26.50;;;15.77;;
85077;SDS011;75413;50.144;8.456;2024-03-08T06:44:10;23.15;;;13.45;;
85077;SDS011;75413;50.144;8.456;2024-03-08T06:46:54;23.15;;;13.75;;
85077;SDS011;75413;50.144;8.456;2024-03-08T06:49:38;29.00;;;15.63;;
85077;SDS011;75413;50.144;8.456;2024-03-08T06:52:22;24.58;;;14.90;;
85077;SDS011;75413;50.144;8.456;2024-03-08T06:55:06;25.45;;;14.93;;
85077;SDS011;75413;50.144;8.456;2024-03-08T07:00:35;26.70;;;14.35;;
85077;SDS011;75413;50.144;8.456;2024-03-08T07:06:06;28.13;;;14.13;;
85077;SDS011;75413;50.144;8.456;2024-03-08T07:08:51;25.60;;;14.77;;
85077;SDS011;75413;50.144;8.456;2024-03-08T07:11:35;23.88;;;13.95;;
85077;SDS011;75413;50.144;8.456;2024-03-08T07:14:23;23.98;;;13.48;;
85077;SDS011;75413;50.144;8.456;2024-03-08T07:17:08;24.48;;;14.95;;
85077;SDS011;75413;50.144;8.456;2024-03-08T07:19:52;27.45;;;14.15;;
85077;SDS011;75413;50.144;8.456;2024-03-08T07:22:37;26.75;;;14.43;;
85077;SDS011;75413;50.144;8.456;2024-03-08T07:25:22;25.73;;;14.55;;
85077;SDS011;75413;50.144;8.456;2024-03-08T07:28:07;21.52;;;13.30;;
85077;SDS011;75413;50.144;8.456;2024-03-08T07:30:51;27.27;;;14.35;;
85077;SDS011;75413;50.144;8.456;2024-03-08T07:33:35;26.73;;;15.27;;
85077;SDS011;75413;50.144;8.456;2024-03-08T07:36:19;25.67;;;13.48;;
85077;SDS011;75413;50.144;8.456;2024-03-08T07:39:03;26.30;;;14.48;;
85077;SDS011;75413;50.144;8.456;2024-03-08T07:41:53;24.05;;;14.40;;
85077;SDS011;75413;50.144;8.456;2024-03-08T07:44:37;21.65;;;13.88;;
85077;SDS011;75413;50.144;8.456;2024-03-08T07:47:22;26.48;;;15.63;;
85077;SDS011;75413;50.144;8.456;2024-03-08T07:50:06;26.90;;;15.68;;
85077;SDS011;75413;50.144;8.456;2024-03-08T07:52:52;23.90;;;14.90;;
85077;SDS011;75413;50.144;8.456;2024-03-08T07:55:36;29.30;;;15.55;;
85077;SDS011;75413;50.144;8.456;2024-03-08T07:58:19;22.98;;;14.68;;
85077;SDS011;75413;50.144;8.456;2024-03-08T08:01:03;23.60;;;14.25;;
85077;SDS011;75413;50.144;8.456;2024-03-08T08:03:50;24.33;;;16.25;;
85077;SDS011;75413;50.144;8.456;2024-03-08T08:06:34;26.83;;;14.48;;
85077;SDS011;75413;50.144;8.456;2024-03-08T08:09:20;29.30;;;14.30;;
85077;SDS011;75413;50.144;8.456;2024-03-08T08:12:13;23.73;;;14.60;;
85077;SDS011;75413;50.144;8.456;2024-03-08T08:17:44;24.13;;;14.57;;
85077;SDS011;75413;50.144;8.456;2024-03-08T08:20:28;24.65;;;14.20;;
85077;SDS011;75413;50.144;8.456;2024-03-08T08:23:12;24.63;;;14.75;;
85077;SDS011;75413;50.144;8.456;2024-03-08T08:25:57;24.88;;;14.65;;
85077;SDS011;75413;50.144;8.456;2024-03-08T08:28:41;24.65;;;14.60;;
85077;SDS011;75413;50.144;8.456;2024-03-08T08:31:27;22.88;;;14.15;;
85077;SDS011;75413;50.144;8.456;2024-03-08T08:34:10;22.42;;;13.93;;
85077;SDS011;75413;50.144;8.456;2024-03-08T08:36:55;25.75;;;15.07;;
85077;SDS011;75413;50.144;8.456;2024-03-08T08:39:39;24.42;;;15.00;;
85077;SDS011;75413;50.144;8.456;2024-03-08T08:42:23;24.77;;;14.52;;
85077;SDS011;75413;50.144;8.456;2024-03-08T08:45:07;22.90;;;14.73;;
85077;SDS011;75413;50.144;8.456;2024-03-08T08:47:52;26.67;;;15.50;;
85077;SDS011;75413;50.144;8.456;2024-03-08T08:50:38;24.70;;;14.80;;
85077;SDS011;75413;50.144;8.456;2024-03-08T08:53:23;21.50;;;14.07;;
85077;SDS011;75413;50.144;8.456;2024-03-08T08:56:07;23.67;;;14.18;;
85077;SDS011;75413;50.144;8.456;2024-03-08T08:58:51;25.98;;;16.10;;
85077;SDS011;75413;50.144;8.456;2024-03-08T09:01:37;27.85;;;15.65;;
85077;SDS011;75413;50.144;8.456;2024-03-08T09:04:21;25.48;;;15.60;;
85077;SDS011;75413;50.144;8.456;2024-03-08T09:07:06;23.40;;;15.27;;
85077;SDS011;75413;50.144;8.456;2024-03-08T09:09:50;23.23;;;15.68;;
85077;SDS011;75413;50.144;8.456;2024-03-08T09:12:34;23.45;;;14.35;;
85077;SDS011;75413;50.144;8.456;2024-03-08T09:15:18;26.38;;;14.70;;
85077;SDS011;75413;50.144;8.456;2024-03-08T09:18:02;22.52;;;13.57;;
85077;SDS011;75413;50.144;8.456;2024-03-08T09:20:49;25.15;;;15.02;;
85077;SDS011;75413;50.144;8.456;2024-03-08T09:23:38;24.52;;;15.30;;
85077;SDS011;75413;50.144;8.456;2024-03-08T09:26:22;23.98;;;14.18;;
85077;SDS011;75413;50.144;8.456;2024-03-08T09:29:06;22.08;;;14.15;;
85077;SDS011;75413;50.144;8.456;2024-03-08T09:31:50;24.55;;;15.95;;
85077;SDS011;75413;50.144;8.456;2024-03-08T09:34:35;25.23;;;15.23;;
85077;SDS011;75413;50.144;8.456;2024-03-08T09:37:19;23.15;;;14.90;;
85077;SDS011;75413;50.144;8.456;2024-03-08T09:40:03;21.88;;;13.73;;
85077;SDS011;75413;50.144;8.456;2024-03-08T09:42:58;22.95;;;15.25;;
85077;SDS011;75413;50.144;8.456;2024-03-08T09:48:28;23.67;;;13.65;;
85077;SDS011;75413;50.144;8.456;2024-03-08T09:51:13;20.75;;;14.15;;
85077;SDS011;75413;50.144;8.456;2024-03-08T09:53:59;27.90;;;14.48;;
85077;SDS011;75413;50.144;8.456;2024-03-08T09:56:43;24.00;;;15.20;;
85077;SDS011;75413;50.144;8.456;2024-03-08T09:59:29;20.48;;;13.57;;
85077;SDS011;75413;50.144;8.456;2024-03-08T10:02:22;19.45;;;13.18;;
85077;SDS011;75413;50.144;8.456;2024-03-08T10:05:06;24.23;;;13.75;;
85077;SDS011;75413;50.144;8.456;2024-03-08T10:07:54;21.35;;;14.07;;
85077;SDS011;75413;50.144;8.456;2024-03-08T10:10:38;25.48;;;14.23;;
85077;SDS011;75413;50.144;8.456;2024-03-08T10:13:22;22.35;;;13.75;;
85077;SDS011;75413;50.144;8.456;2024-03-08T10:16:06;21.25;;;13.45;;
85077;SDS011;75413;50.144;8.456;2024-03-08T10:18:51;21.98;;;13.88;;
85077;SDS011;75413;50.144;8.456;2024-03-08T10:21:46;20.50;;;13.02;;
85077;SDS011;75413;50.144;8.456;2024-03-08T10:24:34;21.13;;;13.30;;
85077;SDS011;75413;50.144;8.456;2024-03-08T10:27:18;20.50;;;12.27;;
85077;SDS011;75413;50.144;8.456;2024-03-08T10:30:02;21.60;;;12.70;;
85077;SDS011;75413;50.144;8.456;2024-03-08T10:32:47;19.90;;;13.07;;
85077;SDS011;75413;50.144;8.456;2024-03-08T10:35:31;19.67;;;12.98;;
85077;SDS011;75413;50.144;8.456;2024-03-08T10:38:15;20.67;;;13.40;;
85077;SDS011;75413;50.144;8.456;2024-03-08T10:41:04;22.05;;;12.38;;
85077;SDS011;75413;50.144;8.456;2024-03-08T10:50:36;16.52;;;10.75;;
85077;SDS011;75413;50.144;8.456;2024-03-08T10:53:13;15.73;;;11.18;;
85077;SDS011;75413;50.144;8.456;2024-03-08T10:55:57;15.82;;;10.00;;
85077;SDS011;75413;50.144;8.456;2024-03-08T10:58:41;15.38;;;9.93;;
85077;SDS011;75413;50.144;8.456;2024-03-08T11:01:27;13.55;;;9.48;;
85077;SDS011;75413;50.144;8.456;2024-03-08T11:04:13;14.68;;;10.48;;
85077;SDS011;75413;50.144;8.456;2024-03-08T11:09:51;17.95;;;10.68;;
85077;SDS011;75413;50.144;8.456;2024-03-08T11:12:38;16.20;;;10.40;;
85077;SDS011;75413;50.144;8.456;2024-03-08T11:15:22;13.63;;;9.35;;
85077;SDS011;75413;50.144;8.456;2024-03-08T11:18:08;15.57;;;9.75;;
85077;SDS011;75413;50.144;8.456;2024-03-08T11:20:54;14.18;;;9.70;;
85077;SDS011;75413;50.144;8.456;2024-03-08T11:23:38;15.77;;;9.23;;
85077;SDS011;75413;50.144;8.456;2024-03-08T11:26:26;14.75;;;10.25;;
85077;SDS011;75413;50.144;8.456;2024-03-08T11:32:15;13.98;;;8.82;;
85077;SDS011;75413;50.144;8.456;2024-03-08T11:35:01;14.32;;;9.23;;
85077;SDS011;75413;50.144;8.456;2024-03-08T11:37:49;15.75;;;10.50;;
85077;SDS011;75413;50.144;8.456;2024-03-08T11:43:20;14.55;;;9.85;;
85077;SDS011;75413;50.144;8.456;2024-03-08T11:48:53;14.95;;;9.65;;
85077;SDS011;75413;50.144;8.456;2024-03-08T11:51:39;15.88;;;10.00;;
85077;SDS011;75413;50.144;8.456;2024-03-08T11:54:24;17.20;;;10.02;;
85077;SDS011;75413;50.144;8.456;2024-03-08T11:57:11;13.48;;;8.98;;
85077;SDS011;75413;50.144;8.456;2024-03-08T11:59:55;14.35;;;9.02;;
85077;SDS011;75413;50.144;8.456;2024-03-08T12:03:02;15.00;;;9.07;;
85077;SDS011;75413;50.144;8.456;2024-03-08T12:05:47;13.25;;;9.13;;
85077;SDS011;75413;50.144;8.456;2024-03-08T12:08:41;13.52;;;9.35;;
85077;SDS011;75413;50.144;8.456;2024-03-08T12:11:25;14.32;;;8.50;;
85077;SDS011;75413;50.144;8.456;2024-03-08T12:16:57;16.30;;;8.90;;
85077;SDS011;75413;50.144;8.456;2024-03-08T12:19:45;14.18;;;9.15;;
85077;SDS011;75413;50.144;8.456;2024-03-08T12:22:30;14.77;;;10.00;;
85077;SDS011;75413;50.144;8.456;2024-03-08T12:25:15;13.98;;;9.77;;
85077;SDS011;75413;50.144;8.456;2024-03-08T12:28:11;15.25;;;9.25;;
85077;SDS011;75413;50.144;8.456;2024-03-08T12:30:57;16.25;;;9.98;;
85077;SDS011;75413;50.144;8.456;2024-03-08T12:33:50;13.52;;;9.23;;
85077;SDS011;75413;50.144;8.456;2024-03-08T12:36:35;18.13;;;10.25;;
85077;SDS011;75413;50.144;8.456;2024-03-08T12:39:25;15.65;;;9.15;;
85077;SDS011;75413;50.144;8.456;2024-03-08T12:42:10;15.48;;;9.32;;
85077;SDS011;75413;50.144;8.456;2024-03-08T12:44:55;13.82;;;10.13;;
85077;SDS011;75413;50.144;8.456;2024-03-08T12:47:39;15.50;;;10.57;;
85077;SDS011;75413;50.144;8.456;2024-03-08T12:50:25;14.60;;;9.77;;
85077;SDS011;75413;50.144;8.456;2024-03-08T12:55:53;12.75;;;9.13;;
85077;SDS011;75413;50.144;8.456;2024-03-08T12:58:43;16.27;;;10.20;;
85077;SDS011;75413;50.144;8.456;2024-03-08T13:01:27;14.55;;;10.35;;
85077;SDS011;75413;50.144;8.456;2024-03-08T13:06:55;16.27;;;10.48;;
85077;SDS011;75413;50.144;8.456;2024-03-08T13:09:39;16.23;;;10.80;;
85077;SDS011;75413;50.144;8.456;2024-03-08T13:15:07;14.93;;;9.48;;
85077;SDS011;75413;50.144;8.456;2024-03-08T13:17:54;14.07;;;10.02;;
85077;SDS011;75413;50.144;8.456;2024-03-08T13:20:37;16.08;;;9.30;;
85077;SDS011;75413;50.144;8.456;2024-03-08T13:26:12;17.80;;;10.05;;
85077;SDS011;75413;50.144;8.456;2024-03-08T13:28:59;18.13;;;11.13;;
85077;SDS011;75413;50.144;8.456;2024-03-08T13:31:43;14.02;;;9.88;;
85077;SDS011;75413;50.144;8.456;2024-03-08T13:34:27;18.90;;;11.68;;
85077;SDS011;75413;50.144;8.456;2024-03-08T13:37:13;15.40;;;11.07;;
85077;SDS011;75413;50.144;8.456;2024-03-08T13:39:59;15.73;;;10.80;;
85077;SDS011;75413;50.144;8.456;2024-03-08T13:42:43;18.27;;;9.98;;
85077;SDS011;75413;50.144;8.456;2024-03-08T13:45:28;21.50;;;11.68;;
85077;SDS011;75413;50.144;8.456;2024-03-08T13:48:12;17.80;;;10.57;;
85077;SDS011;75413;50.144;8.456;2024-03-08T13:50:56;13.93;;;9.77;;
85077;SDS011;75413;50.144;8.456;2024-03-08T13:53:40;17.35;;;11.43;;
85077;SDS011;75413;50.144;8.456;2024-03-08T13:56:24;16.88;;;11.55;;
85077;SDS011;75413;50.144;8.456;2024-03-08T13:59:08;16.98;;;11.32;;
85077;SDS011;75413;50.144;8.456;2024-03-08T14:01:53;16.27;;;11.38;;
85077;SDS011;75413;50.144;8.456;2024-03-08T14:04:37;15.45;;;10.70;;
85077;SDS011;75413;50.144;8.456;2024-03-08T14:07:22;15.38;;;10.23;;
85077;SDS011;75413;50.144;8.456;2024-03-08T14:10:07;17.75;;;11.48;;
85077;SDS011;75413;50.144;8.456;2024-03-08T14:12:57;13.85;;;10.88;;
85077;SDS011;75413;50.144;8.456;2024-03-08T14:15:41;15.10;;;11.23;;
85077;SDS011;75413;50.144;8.456;2024-03-08T14:18:26;21.05;;;11.13;;
85077;SDS011;75413;50.144;8.456;2024-03-08T14:23:54;18.58;;;10.57;;
85077;SDS011;75413;50.144;8.456;2024-03-08T14:26:38;18.38;;;11.65;;
85077;SDS011;75413;50.144;8.456;2024-03-08T14:29:22;14.90;;;10.00;;
85077;SDS011;75413;50.144;8.456;2024-03-08T14:32:07;18.88;;;11.85;;
85077;SDS011;75413;50.144;8.456;2024-03-08T14:34:52;16.92;;;12.00;;
85077;SDS011;75413;50.144;8.456;2024-03-08T14:37:36;18.50;;;11.55;;
85077;SDS011;75413;50.144;8.456;2024-03-08T14:40:20;16.15;;;10.88;;
85077;SDS011;75413;50.144;8.456;2024-03-08T14:43:07;15.18;;;10.50;;
85077;SDS011;75413;50.144;8.456;2024-03-08T14:48:36;14.77;;;10.20;;
85077;SDS011;75413;50.144;8.456;2024-03-08T14:51:21;15.13;;;11.00;;
85077;SDS011;75413;50.144;8.456;2024-03-08T14:54:06;15.05;;;11.00;;
85077;SDS011;75413;50.144;8.456;2024-03-08T14:56:50;17.02;;;10.90;;
85077;SDS011;75413;50.144;8.456;2024-03-08T14:59:38;14.88;;;10.05;;
85077;SDS011;75413;50.144;8.456;2024-03-08T15:02:22;17.13;;;10.82;;
85077;SDS011;75413;50.144;8.456;2024-03-08T15:05:06;15.27;;;10.60;;
85077;SDS011;75413;50.144;8.456;2024-03-08T15:07:54;13.40;;;10.18;;
85077;SDS011;75413;50.144;8.456;2024-03-08T15:10:38;13.60;;;10.05;;
85077;SDS011;75413;50.144;8.456;2024-03-08T15:13:24;16.92;;;10.63;;
85077;SDS011;75413;50.144;8.456;2024-03-08T15:16:11;16.38;;;11.07;;
85077;SDS011;75413;50.144;8.456;2024-03-08T15:19:00;14.82;;;10.73;;
85077;SDS011;75413;50.144;8.456;2024-03-08T15:21:46;17.23;;;11.30;;
85077;SDS011;75413;50.144;8.456;2024-03-08T15:24:31;13.90;;;9.95;;
85077;SDS011;75413;50.144;8.456;2024-03-08T15:27:15;14.00;;;9.77;;
85077;SDS011;75413;50.144;8.456;2024-03-08T15:30:02;17.63;;;10.80;;
85077;SDS011;75413;50.144;8.456;2024-03-08T15:32:46;14.77;;;9.80;;
85077;SDS011;75413;50.144;8.456;2024-03-08T15:35:32;14.27;;;9.73;;
85077;SDS011;75413;50.144;8.456;2024-03-08T15:38:16;17.27;;;10.98;;
85077;SDS011;75413;50.144;8.456;2024-03-08T15:41:02;18.50;;;9.77;;
85077;SDS011;75413;50.144;8.456;2024-03-08T15:43:53;14.48;;;10.27;;
85077;SDS011;75413;50.144;8.456;2024-03-08T15:46:38;15.43;;;11.13;;
85077;SDS011;75413;50.144;8.456;2024-03-08T15:49:23;14.88;;;9.55;;
85077;SDS011;75413;50.144;8.456;2024-03-08T15:52:10;17.83;;;11.35;;
85077;SDS011;75413;50.144;8.456;2024-03-08T15:54:55;15.70;;;9.95;;
85077;SDS011;75413;50.144;8.456;2024-03-08T15:57:39;15.98;;;10.20;;
85077;SDS011;75413;50.144;8.456;2024-03-08T16:00:23;15.55;;;10.02;;
85077;SDS011;75413;50.144;8.456;2024-03-08T16:03:26;16.85;;;10.18;;
85077;SDS011;75413;50.144;8.456;2024-03-08T16:06:12;16.05;;;10.32;;
85077;SDS011;75413;50.144;8.456;2024-03-08T16:08:56;14.63;;;9.23;;
85077;SDS011;75413;50.144;8.456;2024-03-08T16:11:39;14.57;;;9.88;;
85077;SDS011;75413;50.144;8.456;2024-03-08T16:17:07;13.98;;;9.50;;
85077;SDS011;75413;50.144;8.456;2024-03-08T16:19:54;14.05;;;9.68;;
85077;SDS011;75413;50.144;8.456;2024-03-08T16:22:43;13.20;;;8.77;;
85077;SDS011;75413;50.144;8.456;2024-03-08T16:25:28;15.38;;;9.05;;
85077;SDS011;75413;50.144;8.456;2024-03-08T16:30:59;19.05;;;10.20;;
85077;SDS011;75413;50.144;8.456;2024-03-08T16:33:43;13.18;;;9.13;;
85077;SDS011;75413;50.144;8.456;2024-03-08T16:36:28;14.98;;;9.95;;
85077;SDS011;75413;50.144;8.456;2024-03-08T16:39:12;13.88;;;8.95;;
85077;SDS011;75413;50.144;8.456;2024-03-08T16:41:56;14.05;;;9.20;;
85077;SDS011;75413;50.144;8.456;2024-03-08T16:44:40;13.43;;;9.63;;
85077;SDS011;75413;50.144;8.456;2024-03-08T16:50:09;13.10;;;8.48;;
85077;SDS011;75413;50.144;8.456;2024-03-08T16:52:56;13.98;;;8.85;;
85077;SDS011;75413;50.144;8.456;2024-03-08T16:55:41;16.73;;;9.05;;
85077;SDS011;75413;50.144;8.456;2024-03-08T16:58:25;11.57;;;8.20;;
85077;SDS011;75413;50.144;8.456;2024-03-08T17:03:54;15.60;;;8.60;;
85077;SDS011;75413;50.144;8.456;2024-03-08T17:06:39;14.70;;;9.27;;
85077;SDS011;75413;50.144;8.456;2024-03-08T17:09:23;12.93;;;8.60;;
85077;SDS011;75413;50.144;8.456;2024-03-08T17:12:09;13.40;;;8.55;;